createdAt,value
2018-02-25T00:00:44.538Z,0.00
2018-02-25T00:01:44.529Z,0.00
2018-02-25T00:02:44.537Z,0.00
2018-02-25T00:03:44.545Z,0.00
2018-02-25T00:04:44.566Z,0.00
2018-02-25T00:05:44.607Z,0.00
2018-02-25T00:06:44.589Z,0.00
2018-02-25T00:07:44.534Z,0.00
2018-02-25T00:08:44.524Z,0.00
2018-02-25T00:09:44.539Z,0.00
2018-02-25T00:10:44.577Z,0.00
2018-02-25T00:11:44.543Z,0.00
2018-02-25T00:12:44.563Z,0.00
2018-02-25T00:13:44.576Z,0.00
2018-02-25T00:14:44.697Z,0.00
2018-02-25T00:15:44.582Z,0.00
2018-02-25T00:16:44.553Z,0.00
2018-02-25T00:17:44.644Z,0.00
2018-02-25T00:18:44.558Z,0.00
2018-02-25T00:19:44.567Z,0.00
2018-02-25T00:20:44.563Z,0.00
2018-02-25T00:21:44.618Z,0.00
2018-02-25T00:22:44.586Z,0.00
2018-02-25T00:23:44.696Z,0.00
2018-02-25T00:24:44.590Z,0.00
2018-02-25T00:25:44.580Z,0.00
2018-02-25T00:26:44.605Z,0.00
2018-02-25T00:27:44.583Z,0.00
2018-02-25T00:28:44.696Z,4.00
2018-02-25T00:29:44.589Z,0.00
2018-02-25T00:30:44.636Z,0.00
2018-02-25T00:31:44.636Z,0.00
2018-02-25T00:32:44.771Z,0.00
2018-02-25T00:33:45.454Z,0.00
2018-02-25T00:34:44.605Z,0.00
2018-02-25T00:35:44.607Z,0.00
2018-02-25T00:36:44.682Z,0.00
2018-02-25T00:37:44.601Z,0.00
2018-02-25T00:38:44.748Z,0.00
2018-02-25T00:39:44.613Z,0.00
2018-02-25T00:40:44.690Z,0.00
2018-02-25T00:41:44.612Z,0.00
2018-02-25T00:42:44.632Z,0.00
2018-02-25T00:43:44.606Z,0.00
2018-02-25T00:44:44.605Z,0.00
2018-02-25T00:45:44.631Z,0.00
2018-02-25T00:46:44.620Z,0.00
2018-02-25T00:47:44.628Z,0.00
2018-02-25T00:48:44.636Z,0.00
2018-02-25T00:49:44.626Z,0.00
2018-02-25T00:50:44.637Z,0.00
2018-02-25T00:51:44.640Z,0.00
2018-02-25T00:52:44.642Z,0.00
2018-02-25T00:53:44.631Z,0.00
2018-02-25T00:54:44.738Z,0.00
2018-02-25T00:55:44.661Z,0.00
2018-02-25T00:56:44.677Z,0.00
2018-02-25T00:57:44.644Z,0.00
2018-02-25T00:58:44.640Z,0.00
2018-02-25T00:59:44.645Z,0.00
2018-02-25T01:00:44.701Z,0.00
2018-02-25T01:01:44.655Z,0.00
2018-02-25T01:02:44.680Z,0.00
2018-02-25T01:03:44.718Z,0.00
2018-02-25T01:04:44.662Z,0.00
2018-02-25T01:05:44.700Z,0.00
2018-02-25T01:06:44.668Z,0.00
2018-02-25T01:07:44.782Z,0.00
2018-02-25T01:08:44.705Z,0.00
2018-02-25T01:09:44.678Z,0.00
2018-02-25T01:10:44.684Z,0.00
2018-02-25T01:11:44.688Z,0.00
2018-02-25T01:12:44.689Z,0.00
2018-02-25T01:13:44.679Z,0.00
2018-02-25T01:14:44.704Z,0.00
2018-02-25T01:15:44.687Z,0.00
2018-02-25T01:16:44.687Z,0.00
2018-02-25T01:17:44.711Z,0.00
2018-02-25T01:18:44.706Z,0.00
2018-02-25T01:19:44.697Z,0.00
2018-02-25T01:20:44.724Z,0.00
2018-02-25T01:21:44.744Z,0.00
2018-02-25T01:22:44.769Z,0.00
2018-02-25T01:23:44.705Z,0.00
2018-02-25T01:24:44.708Z,0.00
2018-02-25T01:25:44.710Z,0.00
2018-02-25T01:26:44.724Z,0.00
2018-02-25T01:27:44.715Z,0.00
2018-02-25T01:28:44.720Z,0.00
2018-02-25T01:29:44.711Z,0.00
2018-02-25T01:30:44.716Z,0.00
2018-02-25T01:31:44.722Z,0.00
2018-02-25T01:32:44.725Z,0.00
2018-02-25T01:33:44.724Z,0.00
2018-02-25T01:34:44.749Z,0.00
2018-02-25T01:35:44.865Z,0.00
2018-02-25T01:36:44.733Z,0.00
2018-02-25T01:37:44.725Z,0.00
2018-02-25T01:38:44.774Z,0.00
2018-02-25T01:39:44.735Z,0.00
2018-02-25T01:40:44.737Z,0.00
2018-02-25T01:41:44.743Z,0.00
2018-02-25T01:42:44.735Z,0.00
2018-02-25T01:43:44.738Z,0.00
2018-02-25T01:44:44.755Z,0.00
2018-02-25T01:45:44.750Z,0.00
2018-02-25T01:46:44.747Z,0.00
2018-02-25T01:47:44.759Z,0.00
2018-02-25T01:48:44.818Z,0.00
2018-02-25T01:49:44.758Z,0.00
2018-02-25T01:50:44.768Z,0.00
2018-02-25T01:51:44.782Z,0.00
2018-02-25T01:52:44.764Z,0.00
2018-02-25T01:53:44.769Z,0.00
2018-02-25T01:54:44.785Z,0.00
2018-02-25T01:55:44.769Z,0.00
2018-02-25T01:56:44.769Z,0.00
2018-02-25T01:57:44.777Z,0.00
2018-02-25T01:58:44.814Z,0.00
2018-02-25T01:59:44.845Z,0.00
2018-02-25T02:00:44.803Z,0.00
2018-02-25T02:01:44.971Z,0.00
2018-02-25T02:02:44.795Z,0.00
2018-02-25T02:03:44.842Z,0.00
2018-02-25T02:04:44.803Z,0.00
2018-02-25T02:05:44.804Z,0.00
2018-02-25T02:06:44.784Z,0.00
2018-02-25T02:07:45.354Z,0.00
2018-02-25T02:08:44.794Z,0.00
2018-02-25T02:09:44.815Z,0.00
2018-02-25T02:10:44.799Z,0.00
2018-02-25T02:11:44.849Z,0.00
2018-02-25T02:12:44.810Z,0.00
2018-02-25T02:13:44.797Z,0.00
2018-02-25T02:14:44.846Z,0.00
2018-02-25T02:15:44.817Z,0.00
2018-02-25T02:16:44.837Z,0.00
2018-02-25T02:17:44.809Z,0.00
2018-02-25T02:18:44.829Z,0.00
2018-02-25T02:19:44.822Z,0.00
2018-02-25T02:20:44.823Z,0.00
2018-02-25T02:21:44.880Z,0.00
2018-02-25T02:22:44.900Z,0.00
2018-02-25T02:23:44.833Z,0.00
2018-02-25T02:24:44.831Z,0.00
2018-02-25T02:25:44.832Z,0.00
2018-02-25T02:26:44.835Z,0.00
2018-02-25T02:27:44.859Z,0.00
2018-02-25T02:28:44.838Z,0.00
2018-02-25T02:29:44.838Z,0.00
2018-02-25T02:30:44.833Z,0.00
2018-02-25T02:31:44.848Z,0.00
2018-02-25T02:32:44.867Z,0.00
2018-02-25T02:33:44.846Z,0.00
2018-02-25T02:34:44.869Z,0.00
2018-02-25T02:35:44.863Z,0.00
2018-02-25T02:36:44.865Z,0.00
2018-02-25T02:37:44.852Z,0.00
2018-02-25T02:38:44.864Z,0.00
2018-02-25T02:39:44.876Z,0.00
2018-02-25T02:40:44.862Z,0.00
2018-02-25T02:41:44.919Z,0.00
2018-02-25T02:42:45.351Z,0.00
2018-02-25T02:43:44.871Z,0.00
2018-02-25T02:44:44.868Z,0.00
2018-02-25T02:45:44.882Z,0.00
2018-02-25T02:46:44.867Z,0.00
2018-02-25T02:47:44.868Z,0.00
2018-02-25T02:48:44.874Z,0.00
2018-02-25T02:49:44.868Z,0.00
2018-02-25T02:50:44.894Z,0.00
2018-02-25T02:51:44.891Z,0.00
2018-02-25T02:52:44.902Z,0.00
2018-02-25T02:53:44.883Z,0.00
2018-02-25T02:54:44.897Z,0.00
2018-02-25T02:55:44.939Z,0.00
2018-02-25T02:56:44.881Z,0.00
2018-02-25T02:57:44.897Z,0.00
2018-02-25T02:58:44.888Z,0.00
2018-02-25T02:59:44.908Z,0.00
2018-02-25T03:00:44.917Z,0.00
2018-02-25T03:01:44.907Z,0.00
2018-02-25T03:02:44.949Z,0.00
2018-02-25T03:03:44.921Z,0.00
2018-02-25T03:04:44.892Z,0.00
2018-02-25T03:05:44.893Z,0.00
2018-02-25T03:06:44.900Z,0.00
2018-02-25T03:07:44.901Z,0.00
2018-02-25T03:08:45.002Z,0.00
2018-02-25T03:09:44.907Z,0.00
2018-02-25T03:10:44.911Z,0.00
2018-02-25T03:11:44.936Z,0.00
2018-02-25T03:12:44.915Z,0.00
2018-02-25T03:13:44.924Z,0.00
2018-02-25T03:14:44.926Z,0.00
2018-02-25T03:15:44.913Z,0.00
2018-02-25T03:16:44.919Z,0.00
2018-02-25T03:17:44.951Z,0.00
2018-02-25T03:18:44.940Z,0.00
2018-02-25T03:19:44.932Z,0.00
2018-02-25T03:20:44.963Z,0.00
2018-02-25T03:21:44.952Z,0.00
2018-02-25T03:22:44.951Z,0.00
2018-02-25T03:23:44.936Z,0.00
2018-02-25T03:24:44.942Z,0.00
2018-02-25T03:25:44.988Z,0.00
2018-02-25T03:26:44.992Z,0.00
2018-02-25T03:27:45.017Z,0.00
2018-02-25T03:28:44.964Z,0.00
2018-02-25T03:29:44.972Z,0.00
2018-02-25T03:30:44.932Z,0.00
2018-02-25T03:31:44.947Z,0.00
2018-02-25T03:32:44.951Z,0.00
2018-02-25T03:33:44.970Z,0.00
2018-02-25T03:34:44.953Z,0.00
2018-02-25T03:35:44.954Z,0.00
2018-02-25T03:36:44.959Z,0.00
2018-02-25T03:37:44.942Z,0.00
2018-02-25T03:38:44.957Z,0.00
2018-02-25T03:39:45.090Z,0.00
2018-02-25T03:40:44.957Z,0.00
2018-02-25T03:41:45.072Z,0.00
2018-02-25T03:42:44.950Z,0.00
2018-02-25T03:43:44.999Z,0.00
2018-02-25T03:44:45.012Z,0.00
2018-02-25T03:45:44.947Z,0.00
2018-02-25T03:46:44.962Z,0.00
2018-02-25T03:47:44.961Z,0.00
2018-02-25T03:48:44.965Z,0.00
2018-02-25T03:49:44.967Z,0.00
2018-02-25T03:50:44.966Z,0.00
2018-02-25T03:51:44.970Z,0.00
2018-02-25T03:52:45.096Z,0.00
2018-02-25T03:53:44.968Z,0.00
2018-02-25T03:54:44.969Z,0.00
2018-02-25T03:55:44.987Z,0.00
2018-02-25T03:56:44.979Z,0.00
2018-02-25T03:57:44.986Z,0.00
2018-02-25T03:58:45.018Z,0.00
2018-02-25T03:59:45.136Z,0.00
2018-02-25T04:00:44.986Z,0.00
2018-02-25T04:01:45.015Z,0.00
2018-02-25T04:02:45.011Z,0.00
2018-02-25T04:03:44.991Z,0.00
2018-02-25T04:04:44.986Z,0.00
2018-02-25T04:05:45.022Z,0.00
2018-02-25T04:06:44.999Z,0.00
2018-02-25T04:07:45.013Z,0.00
2018-02-25T04:08:45.012Z,0.00
2018-02-25T04:09:44.995Z,0.00
2018-02-25T04:10:45.066Z,0.00
2018-02-25T04:11:45.008Z,0.00
2018-02-25T04:12:45.023Z,0.00
2018-02-25T04:13:45.000Z,0.00
2018-02-25T04:14:45.011Z,0.00
2018-02-25T04:15:45.020Z,0.00
2018-02-25T04:16:45.016Z,0.00
2018-02-25T04:17:45.028Z,0.00
2018-02-25T04:18:45.022Z,0.00
2018-02-25T04:19:45.010Z,0.00
2018-02-25T04:20:45.068Z,0.00
2018-02-25T04:21:45.040Z,0.00
2018-02-25T04:22:45.033Z,0.00
2018-02-25T04:23:45.097Z,0.00
2018-02-25T04:24:45.017Z,0.00
2018-02-25T04:25:45.036Z,0.00
2018-02-25T04:26:45.020Z,0.00
2018-02-25T04:27:45.029Z,0.00
2018-02-25T04:28:45.029Z,0.00
2018-02-25T04:29:45.019Z,0.00
2018-02-25T04:30:45.031Z,0.00
2018-02-25T04:31:45.037Z,0.00
2018-02-25T04:32:45.030Z,0.00
2018-02-25T04:33:45.046Z,0.00
2018-02-25T04:34:45.047Z,0.00
2018-02-25T04:35:45.028Z,0.00
2018-02-25T04:36:45.198Z,0.00
2018-02-25T04:37:45.036Z,0.00
2018-02-25T04:38:45.067Z,0.00
2018-02-25T04:39:45.042Z,0.00
2018-02-25T04:40:45.050Z,0.00
2018-02-25T04:41:45.050Z,0.00
2018-02-25T04:42:45.094Z,0.00
2018-02-25T04:43:45.059Z,0.00
2018-02-25T04:44:45.054Z,0.00
2018-02-25T04:45:45.037Z,0.00
2018-02-25T04:46:45.047Z,0.00
2018-02-25T04:47:45.075Z,0.00
2018-02-25T04:48:45.060Z,0.00
2018-02-25T04:49:45.055Z,0.00
2018-02-25T04:50:45.051Z,0.00
2018-02-25T04:51:45.053Z,0.00
2018-02-25T04:52:45.065Z,0.00
2018-02-25T04:53:45.080Z,0.00
2018-02-25T04:54:45.074Z,0.00
2018-02-25T04:55:45.052Z,0.00
2018-02-25T04:56:45.103Z,0.00
2018-02-25T04:57:45.177Z,0.00
2018-02-25T04:58:45.067Z,0.00
2018-02-25T04:59:45.071Z,0.00
2018-02-25T05:00:45.092Z,0.00
2018-02-25T05:01:45.076Z,0.00
2018-02-25T05:02:45.079Z,0.00
2018-02-25T05:03:45.079Z,0.00
2018-02-25T05:04:45.092Z,0.00
2018-02-25T05:05:45.070Z,0.00
2018-02-25T05:06:45.084Z,0.00
2018-02-25T05:07:45.182Z,0.00
2018-02-25T05:08:45.068Z,0.00
2018-02-25T05:09:45.076Z,0.00
2018-02-25T05:10:45.090Z,0.00
2018-02-25T05:11:45.096Z,0.00
2018-02-25T05:12:45.069Z,0.00
2018-02-25T05:13:45.084Z,0.00
2018-02-25T05:14:45.085Z,0.00
2018-02-25T05:15:45.142Z,0.00
2018-02-25T05:16:45.127Z,0.00
2018-02-25T05:17:45.090Z,0.00
2018-02-25T05:18:45.091Z,0.00
2018-02-25T05:19:45.116Z,0.00
2018-02-25T05:20:45.177Z,0.00
2018-02-25T05:21:45.115Z,0.00
2018-02-25T05:22:45.149Z,0.00
2018-02-25T05:23:45.091Z,0.00
2018-02-25T05:24:45.117Z,0.00
2018-02-25T05:25:45.088Z,0.00
2018-02-25T05:26:45.094Z,0.00
2018-02-25T05:27:45.100Z,0.00
2018-02-25T05:28:45.128Z,0.00
2018-02-25T05:29:45.114Z,0.00
2018-02-25T05:30:45.126Z,0.00
2018-02-25T05:31:45.098Z,0.00
2018-02-25T05:32:45.149Z,0.00
2018-02-25T05:33:45.146Z,0.00
2018-02-25T05:34:45.108Z,0.00
2018-02-25T05:35:45.110Z,0.00
2018-02-25T05:36:45.121Z,0.00
2018-02-25T05:37:45.111Z,0.00
2018-02-25T05:38:45.261Z,0.00
2018-02-25T05:39:45.121Z,0.00
2018-02-25T05:40:45.114Z,0.00
2018-02-25T05:41:45.138Z,0.00
2018-02-25T05:42:45.133Z,0.00
2018-02-25T05:43:45.114Z,0.00
2018-02-25T05:44:45.117Z,0.00
2018-02-25T05:45:45.125Z,0.00
2018-02-25T05:46:45.117Z,0.00
2018-02-25T05:47:45.141Z,4.00
2018-02-25T05:48:45.122Z,0.00
2018-02-25T05:49:45.115Z,0.00
2018-02-25T05:50:45.157Z,4.00
2018-02-25T05:51:45.283Z,4.00
2018-02-25T05:52:45.160Z,0.00
2018-02-25T05:53:45.126Z,4.00
2018-02-25T05:54:45.158Z,4.00
2018-02-25T05:55:45.153Z,8.00
2018-02-25T05:56:45.135Z,8.00
2018-02-25T05:57:45.140Z,8.00
2018-02-25T05:58:45.132Z,4.00
2018-02-25T05:59:45.148Z,8.00
2018-02-25T06:00:45.136Z,12.00
2018-02-25T06:01:45.172Z,16.00
2018-02-25T06:02:45.155Z,16.00
2018-02-25T06:03:45.138Z,20.00
2018-02-25T06:04:45.145Z,20.00
2018-02-25T06:05:45.148Z,24.00
2018-02-25T06:06:45.142Z,28.00
2018-02-25T06:07:45.168Z,36.00
2018-02-25T06:08:45.141Z,40.00
2018-02-25T06:09:45.144Z,48.00
2018-02-25T06:10:45.157Z,56.00
2018-02-25T06:11:45.139Z,64.00
2018-02-25T06:12:45.152Z,72.00
2018-02-25T06:13:45.160Z,84.00
2018-02-25T06:14:45.166Z,100.00
2018-02-25T06:15:45.158Z,112.00
2018-02-25T06:16:45.181Z,128.00
2018-02-25T06:17:45.156Z,144.00
2018-02-25T06:18:45.152Z,160.00
2018-02-25T06:19:45.153Z,180.00
2018-02-25T06:20:45.157Z,204.00
2018-02-25T06:21:45.168Z,228.00
2018-02-25T06:22:45.149Z,252.00
2018-02-25T06:23:45.169Z,276.00
2018-02-25T06:24:45.162Z,304.00
2018-02-25T06:25:45.198Z,332.00
2018-02-25T06:26:45.148Z,368.00
2018-02-25T06:27:45.150Z,400.00
2018-02-25T06:28:45.218Z,432.00
2018-02-25T06:29:45.160Z,468.00
2018-02-25T06:30:45.171Z,504.00
2018-02-25T06:31:45.209Z,548.00
2018-02-25T06:32:45.162Z,588.00
2018-02-25T06:33:45.212Z,628.00
2018-02-25T06:34:45.185Z,676.00
2018-02-25T06:35:45.262Z,720.00
2018-02-25T06:36:45.161Z,764.00
2018-02-25T06:37:45.170Z,812.00
2018-02-25T06:38:45.275Z,864.00
2018-02-25T06:39:45.159Z,912.00
2018-02-25T06:40:45.165Z,964.00
2018-02-25T06:41:45.192Z,1016.00
2018-02-25T06:42:45.168Z,1072.00
2018-02-25T06:43:45.180Z,1128.00
2018-02-25T06:44:45.174Z,1184.00
2018-02-25T06:45:45.221Z,1240.00
2018-02-25T06:46:45.172Z,1296.00
2018-02-25T06:47:45.214Z,1352.00
2018-02-25T06:48:45.247Z,1404.00
2018-02-25T06:49:45.202Z,1464.00
2018-02-25T06:50:45.185Z,1524.00
2018-02-25T06:51:45.180Z,1580.00
2018-02-25T06:52:45.172Z,1632.00
2018-02-25T06:53:45.179Z,1692.00
2018-02-25T06:54:45.175Z,1752.00
2018-02-25T06:55:45.180Z,1808.00
2018-02-25T06:56:45.188Z,1860.00
2018-02-25T06:57:45.240Z,1920.00
2018-02-25T06:58:45.836Z,1968.00
2018-02-25T06:59:45.241Z,2028.00
2018-02-25T07:00:45.190Z,2080.00
2018-02-25T07:01:45.197Z,2132.00
2018-02-25T07:02:45.190Z,2188.00
2018-02-25T07:03:45.195Z,2240.00
2018-02-25T07:04:45.202Z,2288.00
2018-02-25T07:05:45.193Z,2344.00
2018-02-25T07:06:45.196Z,2392.00
2018-02-25T07:07:45.198Z,2444.00
2018-02-25T07:08:45.288Z,2492.00
2018-02-25T07:09:45.202Z,2544.00
2018-02-25T07:10:45.196Z,2592.00
2018-02-25T07:11:45.208Z,2644.00
2018-02-25T07:12:45.202Z,2692.00
2018-02-25T07:13:45.201Z,2744.00
2018-02-25T07:14:45.228Z,2796.00
2018-02-25T07:15:45.218Z,2840.00
2018-02-25T07:16:45.228Z,2880.00
2018-02-25T07:17:45.311Z,2928.00
2018-02-25T07:18:45.213Z,2976.00
2018-02-25T07:19:45.237Z,3032.00
2018-02-25T07:20:45.227Z,3076.00
2018-02-25T07:21:45.221Z,3112.00
2018-02-25T07:22:45.227Z,3168.00
2018-02-25T07:23:45.219Z,3220.00
2018-02-25T07:24:45.222Z,3260.00
2018-02-25T07:25:45.259Z,3304.00
2018-02-25T07:26:45.267Z,3380.00
2018-02-25T07:27:45.206Z,3404.00
2018-02-25T07:28:45.240Z,3460.00
2018-02-25T07:29:45.214Z,3492.00
2018-02-25T07:30:45.224Z,3528.00
2018-02-25T07:31:45.228Z,3560.00
2018-02-25T07:32:45.229Z,3612.00
2018-02-25T07:33:45.227Z,3648.00
2018-02-25T07:34:45.233Z,3684.00
2018-02-25T07:35:45.231Z,3736.00
2018-02-25T07:36:45.227Z,3756.00
2018-02-25T07:37:45.244Z,3800.00
2018-02-25T07:38:45.241Z,3852.00
2018-02-25T07:39:45.241Z,3904.00
2018-02-25T07:40:45.251Z,3936.00
2018-02-25T07:41:45.244Z,5448.00
2018-02-25T07:42:45.821Z,16192.00
2018-02-25T07:43:45.236Z,30240.00
2018-02-25T07:44:45.246Z,38784.00
2018-02-25T07:45:45.266Z,40896.00
2018-02-25T07:46:45.269Z,42784.00
2018-02-25T07:47:45.273Z,42848.00
2018-02-25T07:48:45.268Z,42752.00
2018-02-25T07:49:45.251Z,42624.00
2018-02-25T07:50:45.249Z,43712.00
2018-02-25T07:51:45.254Z,43936.00
2018-02-25T07:52:45.257Z,43104.00
2018-02-25T07:53:45.264Z,42144.00
2018-02-25T07:54:45.264Z,42592.00
2018-02-25T07:55:45.349Z,43776.00
2018-02-25T07:56:45.269Z,44544.00
2018-02-25T07:57:45.336Z,45344.00
2018-02-25T07:58:45.284Z,45056.00
2018-02-25T07:59:45.292Z,37824.00
2018-02-25T08:00:45.296Z,38368.00
2018-02-25T08:01:45.325Z,45312.00
2018-02-25T08:02:45.316Z,47776.00
2018-02-25T08:03:45.322Z,50016.00
2018-02-25T08:04:45.325Z,49952.00
2018-02-25T08:05:45.323Z,50048.00
2018-02-25T08:06:45.330Z,53056.00
2018-02-25T08:07:45.337Z,52224.00
2018-02-25T08:08:45.351Z,51840.00
2018-02-25T08:09:45.345Z,51680.00
2018-02-25T08:10:45.364Z,52224.00
2018-02-25T08:11:45.370Z,51328.00
2018-02-25T08:12:45.374Z,50880.00
2018-02-25T08:13:45.383Z,50336.00
2018-02-25T08:14:45.393Z,53664.00
2018-02-25T08:15:45.397Z,46912.00
2018-02-25T08:16:45.406Z,30848.00
2018-02-25T08:17:45.420Z,29824.00
2018-02-25T08:18:45.412Z,33920.00
2018-02-25T08:19:45.432Z,40544.00
2018-02-25T08:20:45.466Z,43456.00
2018-02-25T08:21:45.470Z,46688.00
2018-02-25T08:22:45.455Z,37056.00
2018-02-25T08:23:45.485Z,29984.00
2018-02-25T08:24:45.490Z,27648.00
2018-02-25T08:25:45.474Z,25536.00
2018-02-25T08:26:45.486Z,29792.00
2018-02-25T08:27:45.492Z,18784.00
2018-02-25T08:28:45.501Z,24960.00
2018-02-25T08:29:45.503Z,16928.00
2018-02-25T08:30:45.515Z,34720.00
2018-02-25T08:31:45.515Z,20704.00
2018-02-25T08:32:45.549Z,15672.00
2018-02-25T08:33:45.544Z,14280.00
2018-02-25T08:34:45.559Z,16224.00
2018-02-25T08:35:45.548Z,17632.00
2018-02-25T08:36:45.586Z,18624.00
2018-02-25T08:37:45.599Z,23008.00
2018-02-25T08:38:45.575Z,24000.00
2018-02-25T08:39:45.581Z,28800.00
2018-02-25T08:40:45.592Z,26304.00
2018-02-25T08:41:45.589Z,28160.00
2018-02-25T08:42:45.609Z,21024.00
2018-02-25T08:43:45.616Z,22432.00
2018-02-25T08:44:45.624Z,20544.00
2018-02-25T08:45:45.623Z,20352.00
2018-02-25T08:46:45.791Z,20896.00
2018-02-25T08:47:45.630Z,19456.00
2018-02-25T08:48:45.633Z,16052.00
2018-02-25T08:49:45.649Z,23776.00
2018-02-25T08:50:45.648Z,29696.00
2018-02-25T08:51:45.645Z,32544.00
2018-02-25T08:52:45.651Z,41184.00
2018-02-25T08:53:45.671Z,45856.00
2018-02-25T08:54:45.675Z,42784.00
2018-02-25T08:55:45.674Z,48576.00
2018-02-25T08:56:45.714Z,54496.00
2018-02-25T08:57:45.685Z,57024.00
2018-02-25T08:58:45.695Z,58336.00
2018-02-25T08:59:45.704Z,51680.00
2018-02-25T09:00:45.704Z,51648.00
2018-02-25T09:01:45.733Z,52064.00
2018-02-25T09:02:45.722Z,52576.00
2018-02-25T09:03:45.732Z,58240.00
2018-02-25T09:04:45.729Z,57184.00
2018-02-25T09:05:45.740Z,54048.00
2018-02-25T09:06:45.758Z,52320.00
2018-02-25T09:07:45.758Z,51328.00
2018-02-25T09:08:45.780Z,55296.00
2018-02-25T09:09:45.795Z,54304.00
2018-02-25T09:10:45.783Z,54656.00
2018-02-25T09:11:45.802Z,57024.00
2018-02-25T09:12:45.796Z,59872.00
2018-02-25T09:13:45.827Z,58784.00
2018-02-25T09:14:45.915Z,61344.00
2018-02-25T09:15:45.848Z,63584.00
2018-02-25T09:16:45.846Z,59968.00
2018-02-25T09:17:45.845Z,57152.00
2018-02-25T09:18:45.880Z,60256.00
2018-02-25T09:19:45.872Z,60416.00
2018-02-25T09:20:45.914Z,62656.00
2018-02-25T09:21:45.884Z,62304.00
2018-02-25T09:22:45.898Z,61184.00
2018-02-25T09:23:45.898Z,60576.00
2018-02-25T09:24:45.896Z,64256.00
2018-02-25T09:25:45.920Z,72000.00
2018-02-25T09:26:45.930Z,73568.00
2018-02-25T09:27:45.958Z,74016.00
2018-02-25T09:28:45.962Z,76192.00
2018-02-25T09:29:45.959Z,73984.00
2018-02-25T09:30:45.978Z,69952.00
2018-02-25T09:31:45.985Z,73536.00
2018-02-25T09:32:45.991Z,78752.00
2018-02-25T09:33:46.033Z,79424.00
2018-02-25T09:34:46.013Z,77952.00
2018-02-25T09:35:46.039Z,80352.00
2018-02-25T09:36:46.040Z,80992.00
2018-02-25T09:37:46.061Z,74560.00
2018-02-25T09:38:46.069Z,73600.00
2018-02-25T09:39:46.094Z,73600.00
2018-02-25T09:40:46.081Z,72128.00
2018-02-25T09:41:46.099Z,73920.00
2018-02-25T09:42:46.111Z,71808.00
2018-02-25T09:43:46.128Z,77248.00
2018-02-25T09:44:46.184Z,81984.00
2018-02-25T09:45:46.162Z,78560.00
2018-02-25T09:46:46.168Z,77568.00
2018-02-25T09:47:46.188Z,72800.00
2018-02-25T09:48:46.197Z,76384.00
2018-02-25T09:49:46.198Z,82656.00
2018-02-25T09:50:46.227Z,83232.00
2018-02-25T09:51:46.258Z,84640.00
2018-02-25T09:52:46.238Z,87968.00
2018-02-25T09:53:46.254Z,89376.00
2018-02-25T09:54:46.282Z,89920.00
2018-02-25T09:55:46.297Z,87584.00
2018-02-25T09:56:46.302Z,88352.00
2018-02-25T09:57:46.314Z,89216.00
2018-02-25T09:58:46.319Z,88832.00
2018-02-25T09:59:46.333Z,87712.00
2018-02-25T10:00:46.351Z,87296.00
2018-02-25T10:01:46.369Z,90048.00
2018-02-25T10:02:46.405Z,91264.00
2018-02-25T10:03:46.401Z,89280.00
2018-02-25T10:04:46.404Z,90880.00
2018-02-25T10:05:46.423Z,88928.00
2018-02-25T10:06:46.474Z,87552.00
2018-02-25T10:07:46.448Z,90272.00
2018-02-25T10:08:46.448Z,93504.00
2018-02-25T10:09:46.493Z,91264.00
2018-02-25T10:10:46.479Z,92128.00
2018-02-25T10:11:46.509Z,94112.00
2018-02-25T10:12:46.520Z,94272.00
2018-02-25T10:13:46.565Z,92544.00
2018-02-25T10:14:46.538Z,90176.00
2018-02-25T10:15:46.543Z,87264.00
2018-02-25T10:16:46.557Z,85632.00
2018-02-25T10:17:46.611Z,89504.00
2018-02-25T10:18:46.614Z,89760.00
2018-02-25T10:19:46.621Z,91776.00
2018-02-25T10:20:46.626Z,94240.00
2018-02-25T10:21:46.628Z,90656.00
2018-02-25T10:22:46.700Z,94208.00
2018-02-25T10:23:46.659Z,94176.00
2018-02-25T10:24:46.674Z,91456.00
2018-02-25T10:25:46.691Z,89600.00
2018-02-25T10:26:46.712Z,89888.00
2018-02-25T10:27:46.764Z,89888.00
2018-02-25T10:28:46.738Z,88192.00
2018-02-25T10:29:46.744Z,87328.00
2018-02-25T10:30:46.747Z,85152.00
2018-02-25T10:31:46.796Z,86624.00
2018-02-25T10:32:46.811Z,90016.00
2018-02-25T10:33:46.805Z,88800.00
2018-02-25T10:34:46.854Z,85856.00
2018-02-25T10:35:46.856Z,87744.00
2018-02-25T10:36:46.854Z,91456.00
2018-02-25T10:37:46.852Z,91296.00
2018-02-25T10:38:46.979Z,88672.00
2018-02-25T10:39:46.938Z,84576.00
2018-02-25T10:40:46.924Z,85216.00
2018-02-25T10:41:46.910Z,81536.00
2018-02-25T10:42:46.947Z,85600.00
2018-02-25T10:43:46.940Z,79584.00
2018-02-25T10:44:46.954Z,74560.00
2018-02-25T10:45:46.980Z,77376.00
2018-02-25T10:46:47.031Z,81536.00
2018-02-25T10:47:47.022Z,95040.00
2018-02-25T10:48:47.019Z,90432.00
2018-02-25T10:49:47.036Z,91360.00
2018-02-25T10:50:47.045Z,99264.00
2018-02-25T10:51:47.089Z,99008.00
2018-02-25T10:52:47.071Z,93536.00
2018-02-25T10:53:47.084Z,90976.00
2018-02-25T10:54:47.109Z,88416.00
2018-02-25T10:55:47.130Z,86464.00
2018-02-25T10:56:47.133Z,99808.00
2018-02-25T10:57:47.243Z,98144.00
2018-02-25T10:58:47.157Z,96288.00
2018-02-25T10:59:47.170Z,97152.00
2018-02-25T11:00:47.286Z,94656.00
2018-02-25T11:01:47.208Z,90752.00
2018-02-25T11:02:47.242Z,88736.00
2018-02-25T11:03:47.244Z,88128.00
2018-02-25T11:04:47.248Z,95776.00
2018-02-25T11:05:47.265Z,91072.00
2018-02-25T11:06:47.282Z,91360.00
2018-02-25T11:07:47.326Z,83200.00
2018-02-25T11:08:47.322Z,81696.00
2018-02-25T11:09:47.322Z,70080.00
2018-02-25T11:10:47.357Z,77568.00
2018-02-25T11:11:47.365Z,85696.00
2018-02-25T11:12:47.382Z,89632.00
2018-02-25T11:13:47.374Z,89088.00
2018-02-25T11:14:47.416Z,83328.00
2018-02-25T11:15:47.399Z,84736.00
2018-02-25T11:16:47.410Z,85024.00
2018-02-25T11:17:47.443Z,95968.00
2018-02-25T11:18:47.493Z,89312.00
2018-02-25T11:19:47.467Z,82208.00
2018-02-25T11:20:47.540Z,74848.00
2018-02-25T11:21:47.518Z,81024.00
2018-02-25T11:22:47.514Z,83680.00
2018-02-25T11:23:47.529Z,86336.00
2018-02-25T11:24:47.541Z,87872.00
2018-02-25T11:25:47.551Z,87520.00
2018-02-25T11:26:47.599Z,87072.00
2018-02-25T11:27:47.584Z,86752.00
2018-02-25T11:28:47.592Z,78176.00
2018-02-25T11:29:47.605Z,80288.00
2018-02-25T11:30:47.618Z,85664.00
2018-02-25T11:31:47.756Z,83872.00
2018-02-25T11:32:47.652Z,82688.00
2018-02-25T11:33:47.665Z,84000.00
2018-02-25T11:34:47.674Z,80352.00
2018-02-25T11:35:47.805Z,77312.00
2018-02-25T11:36:47.717Z,73024.00
2018-02-25T11:37:47.766Z,75904.00
2018-02-25T11:38:47.742Z,74496.00
2018-02-25T11:39:47.779Z,74208.00
2018-02-25T11:40:47.793Z,77280.00
2018-02-25T11:41:47.784Z,82880.00
2018-02-25T11:42:47.828Z,85504.00
2018-02-25T11:43:47.866Z,84288.00
2018-02-25T11:44:47.850Z,87264.00
2018-02-25T11:45:47.880Z,88416.00
2018-02-25T11:46:47.962Z,79968.00
2018-02-25T11:47:47.863Z,79232.00
2018-02-25T11:48:47.907Z,77248.00
2018-02-25T11:49:48.014Z,71552.00
2018-02-25T11:50:47.969Z,72224.00
2018-02-25T11:51:47.938Z,66080.00
2018-02-25T11:52:47.973Z,63136.00
2018-02-25T11:53:47.956Z,69312.00
2018-02-25T11:54:47.968Z,72768.00
2018-02-25T11:55:47.989Z,69216.00
2018-02-25T11:56:48.005Z,63168.00
2018-02-25T11:57:48.056Z,63776.00
2018-02-25T11:58:48.029Z,66816.00
2018-02-25T11:59:48.158Z,71488.00
2018-02-25T12:00:48.080Z,83840.00
2018-02-25T12:01:48.120Z,89856.00
2018-02-25T12:02:48.094Z,91040.00
2018-02-25T12:03:48.160Z,87136.00
2018-02-25T12:04:48.115Z,87776.00
2018-02-25T12:05:48.120Z,94880.00
2018-02-25T12:06:48.191Z,95456.00
2018-02-25T12:07:48.151Z,89920.00
2018-02-25T12:08:48.187Z,93024.00
2018-02-25T12:09:48.185Z,93312.00
2018-02-25T12:10:48.222Z,91168.00
2018-02-25T12:11:48.211Z,89920.00
2018-02-25T12:12:48.227Z,89632.00
2018-02-25T12:13:48.238Z,88672.00
2018-02-25T12:14:48.251Z,89088.00
2018-02-25T12:15:48.286Z,91488.00
2018-02-25T12:16:48.326Z,91296.00
2018-02-25T12:17:48.321Z,90656.00
2018-02-25T12:18:48.313Z,89152.00
2018-02-25T12:19:48.345Z,90944.00
2018-02-25T12:20:48.368Z,89184.00
2018-02-25T12:21:48.383Z,87712.00
2018-02-25T12:22:48.388Z,89408.00
2018-02-25T12:23:48.389Z,84704.00
2018-02-25T12:24:48.508Z,83200.00
2018-02-25T12:25:48.442Z,89664.00
2018-02-25T12:26:48.467Z,86336.00
2018-02-25T12:27:48.454Z,85920.00
2018-02-25T12:28:48.488Z,88000.00
2018-02-25T12:29:48.484Z,88352.00
2018-02-25T12:30:48.517Z,91648.00
2018-02-25T12:31:48.522Z,91232.00